Terminal Aerodrome Forecast
Issued by NWS Denver/Boulder, CO

Home | Current Version | Previous Version | Text Only | Print | Product List | Glossary On
Versions: 1 2 3 4 5 6 7 8 9 10 11 12 13 14 15 16 17 18 19 20 21 22 23 24 25 26 27 28 29 30 31 32 33 34 35 36 37 38 39 40 41 42 43
000
FTUS45 KBOU 241728
TAFDEN
TAF
KDEN 241728Z 2418/2524 20010KT P6SM VCSH SCT060 BKN080 OVC120
     FM242200 15015G25KT P6SM -SHRA BKN060
     FM250200 17012KT P6SM SCT080 BKN120
     FM250900 20009KT P6SM SCT120
     FM251500 VRB05KT P6SM FEW120 SCT200
     FM251800 15010KT P6SM FEW100 SCT180
     FM252300 17012KT P6SM VCTS SCT080 BKN120CB=

USA.gov is the U.S. government's official web portal to all federal, state and local government web resources and services.